Stations météo

réclame
Mon MeteoGroup
Wilhelminadorp aws, Pays-Bas (6323): Température de l'air & dewpoint: 19.09.2018 13:00:00 - 25.09.2018 13:00:00 (CEST)Wilhelminadorp aws, Pays-Bas (6323): Température de l'air 5cm & Température de l'air -5cm: 19.09.2018 13:00:00 - 25.09.2018 13:00:00 (CEST)Wilhelminadorp aws, Pays-Bas (6323): Température de l'air -20cm & Température de l'air -100cm: 19.09.2018 13:00:00 - 25.09.2018 13:00:00 (CEST)Wilhelminadorp aws, Pays-Bas (6323): Vitesse du vent & gusts: 19.09.2018 13:00:00 - 25.09.2018 13:00:00 (CEST)Wilhelminadorp aws, Pays-Bas (6323): Direction du vent: 19.09.2018 13:00:00 - 25.09.2018 13:00:00 (CEST)Wilhelminadorp aws, Pays-Bas (6323): reduced air pressure: 19.09.2018 13:00:00 - 25.09.2018 13:00:00 (CEST)Wilhelminadorp aws, Pays-Bas (6323): Quantités de précipitations: 19.09.2018 13:00:00 - 25.09.2018 13:00:00 (CEST)
Date & Time tt [°C] td [°C] tt 5cm [°C] tt -5cm [°C] tt -20cm [°C] tt -100cm [°C] ff [km/h] ff [knt] fx [km/h] fx [knt] dd ppp [hPa] rr [mm]
25.09.2018 13:00:00 14,5 7,1 14,5 12,7 12,9 16,2 0 0 7 4 N 1039,5 0,0
25.09.2018 12:00:00 14,6 6,2 14,5 12,3 12,8 16,2 7 4 14 8 S 1039,6 0,0
25.09.2018 11:00:00 14,4 6,7 15,0 11,9 12,8 16,2 4 2 11 6 SSW 1039,5 0,0
25.09.2018 10:00:00 13,2 7,3 13,4 11,7 12,8 16,2 4 2 7 4 SSW 1039,2 0,0
25.09.2018 09:00:00 10,3 8,7 9,2 11,6 12,9 16,2 4 2 4 2 S 1038,6 0,0
25.09.2018 08:00:00 6,0 5,3 4,6 11,7 13,0 16,2 4 2 7 4 SSW 1038,2 0,0
25.09.2018 07:00:00 6,2 5,5 5,1 11,8 13,2 16,2 0 0 7 4 N 1038,0 0,0
25.09.2018 06:00:00 6,5 5,6 4,7 12,0 13,3 16,2 4 2 4 2 SSE 1037,9 0,0
25.09.2018 05:00:00 6,3 5,3 4,0 12,2 13,4 16,2 4 2 7 4 SSW 1037,9 0,0
25.09.2018 04:00:00 6,4 5,3 3,7 12,4 13,6 16,2 7 4 7 4 SW 1038,0 0,0
25.09.2018 03:00:00 7,0 5,9 4,7 12,6 13,7 16,3 7 4 14 8 SW 1038,0 0,0
25.09.2018 02:00:00 8,3 6,0 6,3 12,7 13,8 16,3 11 6 14 8 WSW 1038,2 0,0
25.09.2018 01:00:00 8,1 5,7 5,9 12,9 13,9 16,3 11 6 18 10 W 1038,3 0,0
25.09.2018 00:00:00 7,3 5,6 5,2 13,1 14,1 16,3 7 4 14 8 WSW 1038,3 0,0
24.09.2018 23:00:00 8,3 5,9 6,4 13,3 14,2 16,3 7 4 11 6 W 1038,0 0,0
24.09.2018 22:00:00 8,8 6,4 6,4 13,6 14,2 16,3 7 4 14 8 WNW 1037,6 0,0
24.09.2018 21:00:00 9,4 6,2 8,3 13,8 14,3 16,3 11 6 14 8 NNW 1037,2 0,0
24.09.2018 20:00:00 10,4 6,2 9,6 14,0 14,3 16,3 11 6 22 12 NNW 1036,8 0,0
24.09.2018 19:00:00 12,4 6,6 11,7 14,1 14,2 16,3 14 8 32 18 N 1036,4 0,0
24.09.2018 18:00:00 13,0 7,0 12,8 14,1 14,2 16,4 22 12 32 18 N 1036,2 0,0
24.09.2018 17:00:00 14,1 6,0 14,5 14,1 14,0 16,4 25 14 36 19 N 1036,1 0,0
24.09.2018 16:00:00 14,6 8,1 14,2 13,9 13,9 16,4 25 14 36 19 NNW 1036,1 0,0
24.09.2018 15:00:00 13,8 8,4 14,0 13,7 13,8 16,4 18 10 32 18 NNW 1036,0 0,0
24.09.2018 14:00:00 12,6 9,1 - - - - 18 10 43 23 WNW 1036,1 0,7
24.09.2018 13:00:00 13,1 8,0 13,4 13,2 13,7 16,4 4 2 18 10 N 1035,9 0,0
24.09.2018 12:00:00 11,9 8,7 11,5 13,1 13,6 16,4 18 10 50 27 NNW 1035,6 0,2
24.09.2018 11:00:00 13,2 8,1 13,1 12,9 13,6 16,4 25 14 40 21 NW 1034,6 0,0
24.09.2018 10:00:00 11,0 8,2 10,8 12,8 13,6 16,4 14 8 32 18 N 1034,1 0,6
24.09.2018 09:00:00 12,0 7,2 11,3 12,7 13,7 16,4 18 10 25 14 WNW 1033,1 0,0
24.09.2018 08:00:00 11,8 7,1 10,6 12,7 13,8 16,4 14 8 36 19 N 1032,3 0,0
24.09.2018 07:00:00 10,2 6,9 9,7 12,8 13,9 16,4 14 8 22 12 NNW 1031,7 0,0
24.09.2018 06:00:00 9,5 6,5 8,3 12,9 14,0 16,5 7 4 29 16 NW 1031,2 0,0
24.09.2018 05:00:00 10,6 5,8 9,8 13,0 14,0 16,5 18 10 22 12 NNW 1030,6 0,0
24.09.2018 04:00:00 10,2 6,3 9,3 13,1 14,1 16,5 11 6 29 16 N 1029,7 0,2
24.09.2018 03:00:00 10,6 5,9 9,8 13,3 14,2 16,5 14 8 36 19 NNW 1029,2 0,0
24.09.2018 02:00:00 10,3 6,7 9,5 13,4 14,3 16,5 14 8 36 19 NNW 1028,2 0,0
24.09.2018 01:00:00 11,8 6,4 10,4 13,5 14,4 16,5 18 10 32 18 N 1027,0 0,2
24.09.2018 00:00:00 10,1 8,2 9,6 13,6 14,5 16,5 4 2 14 8 W 1026,0 0,8
23.09.2018 23:00:00 9,9 7,9 9,1 13,7 14,6 16,5 0 0 14 8 N 1025,0 0,2
23.09.2018 22:00:00 10,1 8,1 9,7 13,8 14,7 16,5 18 10 54 29 NNE 1023,7 2,0
23.09.2018 21:00:00 10,6 8,7 8,7 13,9 14,7 16,5 18 10 43 23 WNW 1021,7 0,0
23.09.2018 20:00:00 10,3 8,8 10,0 14,0 14,8 16,5 11 6 18 10 WSW 1019,8 3,3
23.09.2018 19:00:00 10,6 8,8 10,5 14,2 14,9 16,5 11 6 32 18 NW 1018,7 1,3
23.09.2018 18:00:00 10,5 8,6 10,4 14,3 14,9 16,5 25 14 47 25 NNW 1017,8 2,0
23.09.2018 17:00:00 11,3 8,3 10,9 14,4 14,9 16,6 36 19 50 27 N 1016,2 1,3
23.09.2018 16:00:00 11,1 8,8 10,9 14,5 14,9 16,6 32 18 47 25 NNE 1013,9 2,5
23.09.2018 15:00:00 12,2 10,3 12,6 14,3 15,0 16,6 18 10 25 14 N 1012,8 0,4
23.09.2018 14:00:00 11,5 10,1 11,4 14,3 15,0 16,6 14 8 25 14 NNE 1011,8 2,7
23.09.2018 13:00:00 11,0 9,4 10,9 14,5 15,0 16,6 18 10 29 16 NE 1011,5 3,2
23.09.2018 12:00:00 11,6 10,6 11,8 14,5 15,0 16,6 18 10 25 14 NNE 1011,2 2,7
23.09.2018 11:00:00 11,9 10,9 12,0 14,5 15,0 16,6 11 6 22 12 ENE 1011,4 0,4
23.09.2018 10:00:00 11,8 10,8 11,9 14,4 15,0 16,6 11 6 18 10 ENE 1011,4 0,2
23.09.2018 09:00:00 11,8 10,6 11,7 14,4 15,1 16,6 11 6 14 8 E 1012,1 0,0
23.09.2018 08:00:00 11,5 10,6 11,5 14,4 15,1 16,6 7 4 14 8 NE 1012,3 0,0
23.09.2018 07:00:00 11,4 10,7 11,3 14,5 15,1 16,6 11 6 18 10 SE 1012,2 0,0
23.09.2018 06:00:00 11,5 10,8 11,4 14,5 15,2 16,6 11 6 18 10 E 1012,7 0,0
23.09.2018 05:00:00 11,5 10,7 11,4 14,5 15,2 16,6 14 8 18 10 ENE 1012,8 0,0
23.09.2018 04:00:00 11,6 10,8 11,5 14,6 15,3 16,6 11 6 14 8 E 1013,4 0,0
23.09.2018 03:00:00 11,2 10,5 11,1 14,6 15,3 16,6 11 6 18 10 E 1014,2 0,0
23.09.2018 02:00:00 11,1 10,3 11,0 14,7 15,4 16,6 14 8 18 10 SE 1014,4 0,0
23.09.2018 01:00:00 11,0 10,2 10,9 14,7 15,4 16,6 11 6 18 10 SE 1015,3 0,0
23.09.2018 00:00:00 11,0 10,2 10,9 14,8 15,5 16,7 7 4 14 8 SSE 1016,5 0,0
22.09.2018 23:00:00 11,0 10,2 10,9 14,9 15,6 16,7 7 4 14 8 SSE 1017,0 0,4
22.09.2018 22:00:00 11,0 10,1 10,9 15,0 15,7 16,7 11 6 14 8 S 1017,6 0,5
22.09.2018 21:00:00 11,0 9,9 10,9 15,1 15,7 16,7 11 6 14 8 S 1018,1 1,0
22.09.2018 20:00:00 11,3 10,0 11,2 15,2 15,8 16,7 11 6 18 10 SSW 1018,2 0,9
22.09.2018 19:00:00 11,7 10,3 11,6 15,3 15,8 16,7 4 2 18 10 SSW 1018,2 1,3
22.09.2018 18:00:00 11,8 10,3 11,7 15,5 15,8 16,7 14 8 22 12 WSW 1018,7 2,4
22.09.2018 17:00:00 12,7 10,4 12,7 15,5 15,8 16,7 14 8 29 16 WSW 1019,5 0,3
22.09.2018 16:00:00 12,7 10,2 12,7 15,5 15,7 16,7 25 14 36 19 SW 1019,4 0,2
22.09.2018 15:00:00 12,9 9,9 12,8 15,4 15,7 16,7 11 6 40 21 WNW 1019,8 0,9
22.09.2018 14:00:00 13,3 8,7 13,1 15,4 15,7 16,7 25 14 40 21 SW 1019,8 0,1
22.09.2018 13:00:00 14,2 10,4 13,6 15,3 15,6 16,7 14 8 43 23 SSW 1019,3 0,2
22.09.2018 12:00:00 14,8 10,1 15,0 15,2 15,6 16,7 18 10 32 18 SW 1019,4 0,0
22.09.2018 11:00:00 14,6 9,8 15,5 14,9 15,6 16,7 22 12 32 18 SW 1019,7 0,0
22.09.2018 10:00:00 12,7 9,5 12,7 14,8 15,7 16,7 18 10 32 18 SSW 1019,3 0,0
22.09.2018 09:00:00 12,2 8,8 11,9 14,8 15,7 16,7 18 10 25 14 SSW 1019,4 0,0
22.09.2018 08:00:00 11,4 9,0 10,8 14,9 15,8 16,7 14 8 25 14 SSW 1019,1 0,0
22.09.2018 07:00:00 11,5 8,6 10,8 15,0 15,9 16,7 14 8 22 12 SSW 1019,1 0,0
22.09.2018 06:00:00 12,6 8,8 11,8 15,1 16,0 16,7 14 8 22 12 SW 1018,8 0,0
22.09.2018 05:00:00 12,4 8,1 11,4 15,2 16,1 16,7 11 6 22 12 WSW 1018,6 0,0
22.09.2018 04:00:00 12,4 7,5 11,6 15,3 16,2 16,7 14 8 29 16 WSW 1018,5 0,0
22.09.2018 03:00:00 13,6 7,3 12,4 15,4 16,3 16,7 25 14 40 21 W 1017,9 0,0
22.09.2018 02:00:00 13,7 7,3 12,6 15,6 16,4 16,7 25 14 40 21 W 1017,4 0,0
22.09.2018 01:00:00 14,0 7,4 12,8 15,7 16,5 16,7 32 18 50 27 W 1016,8 0,0
22.09.2018 00:00:00 14,2 7,8 13,2 15,8 16,6 16,7 36 19 50 27 W 1015,8 0,0
21.09.2018 23:00:00 13,6 9,2 12,5 16,0 16,7 16,7 36 19 61 33 W 1014,8 0,5
21.09.2018 22:00:00 14,4 8,3 12,9 16,1 16,8 16,7 36 19 68 37 W 1013,9 0,2
21.09.2018 21:00:00 15,5 5,9 14,7 16,3 16,9 16,7 43 23 68 37 W 1013,0 0,0
21.09.2018 20:00:00 15,1 9,0 14,5 16,5 17,0 16,7 32 18 61 33 WSW 1011,9 0,0
21.09.2018 19:00:00 14,4 7,8 13,8 16,7 17,1 16,7 43 23 65 35 WSW 1011,4 0,1
21.09.2018 18:00:00 14,7 8,5 14,1 16,8 17,1 16,7 47 25 65 35 W 1011,1 0,2
21.09.2018 17:00:00 16,6 5,9 16,7 16,9 17,1 16,7 43 23 65 35 WSW 1011,0 0,0
21.09.2018 16:00:00 16,0 6,2 16,4 16,9 17,1 16,7 43 23 61 33 WSW 1010,7 0,0
21.09.2018 15:00:00 16,5 5,3 17,5 16,9 17,1 16,7 47 25 65 35 WSW 1010,4 0,0
21.09.2018 14:00:00 15,8 6,7 16,8 16,8 17,1 16,7 43 23 61 33 W 1009,4 0,0
21.09.2018 13:00:00 16,3 8,1 15,9 16,8 17,2 16,7 36 19 65 35 W 1008,3 0,0
21.09.2018 12:00:00 14,8 8,0 14,3 16,9 17,2 16,7 43 23 54 29 W 1007,3 0,0
21.09.2018 11:00:00 15,3 8,6 15,3 16,9 17,3 16,7 43 23 58 31 W 1006,2 0,0
21.09.2018 10:00:00 15,3 9,9 15,1 17,0 17,4 16,7 36 19 58 31 W 1004,6 0,0
21.09.2018 09:00:00 15,3 9,8 14,7 17,2 17,4 16,7 47 25 65 35 W 1003,6 0,0
21.09.2018 08:00:00 15,5 12,7 14,8 17,3 17,5 16,7 32 18 83 45 WSW 1002,1 0,8
21.09.2018 07:00:00 17,8 14,5 17,2 17,3 17,5 16,7 36 19 61 33 SSW 1000,5 0,2
21.09.2018 06:00:00 19,5 13,3 19,1 17,4 17,5 16,6 36 19 58 31 SSW 1000,6 0,0
21.09.2018 05:00:00 19,6 13,2 19,1 17,4 17,6 16,6 32 18 50 27 S 1000,9 0,0
21.09.2018 04:00:00 19,6 13,4 19,1 17,5 17,6 16,6 25 14 47 25 S 1002,5 0,0
21.09.2018 03:00:00 19,9 13,6 19,2 17,6 17,7 16,6 25 14 43 23 SSW 1004,0 0,0
21.09.2018 02:00:00 20,6 13,6 19,8 17,6 17,7 16,6 29 16 47 25 SSW 1005,1 0,0
21.09.2018 01:00:00 21,0 13,4 20,1 17,7 17,8 16,6 22 12 43 23 SSW 1005,9 0,0
21.09.2018 00:00:00 21,2 13,5 20,4 17,8 17,8 16,6 25 14 40 21 SSW 1006,8 0,0
20.09.2018 23:00:00 21,1 13,7 20,2 17,9 17,9 16,6 18 10 32 18 S 1007,6 0,0
20.09.2018 22:00:00 21,1 13,8 20,2 18,0 17,9 16,6 14 8 29 16 S 1008,6 0,0
20.09.2018 21:00:00 21,8 13,6 20,8 18,2 17,9 16,6 14 8 29 16 S 1009,4 0,0
20.09.2018 20:00:00 22,2 13,7 21,0 18,3 17,9 16,6 14 8 29 16 S 1010,4 0,0
20.09.2018 19:00:00 22,2 13,9 21,5 18,4 17,8 16,6 14 8 29 16 SSW 1011,2 0,0
20.09.2018 18:00:00 22,7 13,3 22,3 18,5 17,7 16,6 22 12 36 19 SSW 1012,0 0,0
20.09.2018 17:00:00 23,3 13,6 23,0 18,4 17,6 16,6 18 10 40 21 SSW 1012,5 0,0
20.09.2018 16:00:00 23,9 13,5 24,7 18,3 17,4 16,6 25 14 40 21 SSW 1013,2 0,0
20.09.2018 15:00:00 22,9 13,6 24,2 18,0 17,2 16,6 25 14 43 23 SW 1014,1 0,0
20.09.2018 14:00:00 22,1 13,8 23,5 17,6 17,1 16,6 29 16 43 23 SSW 1014,8 0,0
20.09.2018 13:00:00 21,4 14,1 22,2 17,3 17,0 16,6 25 14 43 23 SSW 1015,0 0,0
20.09.2018 12:00:00 21,0 14,6 21,1 17,1 17,0 16,6 29 16 40 21 SW 1015,6 0,0
20.09.2018 11:00:00 19,1 14,9 19,3 16,9 16,9 16,6 22 12 40 21 SSW 1015,7 0,0
20.09.2018 10:00:00 18,3 14,7 18,2 16,7 17,0 16,6 18 10 32 18 SSW 1015,9 0,0
20.09.2018 09:00:00 16,8 13,9 16,7 16,7 17,0 16,6 18 10 29 16 SSW 1016,0 0,0
20.09.2018 08:00:00 16,5 13,5 16,0 16,8 17,0 16,6 14 8 25 14 SSW 1015,9 0,0
20.09.2018 07:00:00 17,7 14,8 17,3 16,8 17,1 16,6 11 6 22 12 S 1015,8 0,0
20.09.2018 06:00:00 17,4 15,0 16,8 16,9 17,1 16,6 18 10 25 14 SSW 1016,0 0,0
20.09.2018 05:00:00 17,6 14,9 17,0 16,9 17,2 16,6 14 8 22 12 SSW 1016,3 0,0
20.09.2018 04:00:00 17,2 14,5 16,4 17,0 17,2 16,6 14 8 22 12 SSW 1016,2 0,0
20.09.2018 03:00:00 17,7 14,5 17,1 17,1 17,3 16,6 14 8 29 16 SSW 1016,3 0,0
20.09.2018 02:00:00 18,7 14,8 18,2 17,1 17,3 16,6 14 8 25 14 SSW 1016,6 0,0
20.09.2018 01:00:00 17,9 14,3 17,0 17,2 17,4 16,6 14 8 18 10 SSW 1016,8 0,0
20.09.2018 00:00:00 18,2 13,9 17,2 17,4 17,4 16,6 11 6 22 12 SSW 1017,2 0,0
19.09.2018 23:00:00 19,2 14,0 18,3 17,5 17,5 16,6 14 8 - - SW 1017,3 0,0
19.09.2018 22:00:00 20,1 13,9 19,1 17,6 17,5 16,6 14 8 25 14 SW 1017,1 0,0
19.09.2018 21:00:00 20,2 14,0 19,2 17,8 17,5 16,6 14 8 29 16 SW 1016,8 0,0
19.09.2018 20:00:00 20,9 14,0 20,0 17,9 17,5 16,6 14 8 32 18 SSW 1016,4 0,0
19.09.2018 19:00:00 21,8 14,2 21,5 18,0 17,4 16,6 22 12 43 23 SW 1016,2 0,0
19.09.2018 18:00:00 22,3 13,8 22,0 18,0 17,3 16,6 36 19 54 29 SW 1016,1 0,0
19.09.2018 17:00:00 22,5 13,5 22,4 18,0 17,2 16,6 25 14 50 27 SW 1016,0 0,0
19.09.2018 16:00:00 23,2 13,1 23,4 17,8 17,0 16,6 32 18 50 27 SW 1015,9 0,0
19.09.2018 15:00:00 24,4 13,5 23,4 17,6 16,8 16,6 32 18 50 27 SW 1015,8 0,0
19.09.2018 14:00:00 23,5 13,2 24,4 17,3 16,7 16,6 36 19 50 27 SW 1015,7 0,0
19.09.2018 13:00:00 22,9 13,8 23,4 16,8 16,5 16,6 25 14 40 21 SW 1015,9 0,0

tt = Température de l'air
td = dewpoint
tt 5cm = Température de l'air 5cm
tt -5cm = Température de l'air -5cm
tt -20cm = Température de l'air -20cm
tt -100cm = Température de l'air -100cm
ff = Vitesse du vent
fx = gusts
dd = Direction du vent
ppp = reduced air pressure
rr = Quantités de précipitations

stations d'obs. à proximité